Time;durP1;ratioP1;P1;durP2;ratioP2;P2;SDS_P1;SDS_P2;PMS_P1;PMS_P2;Temp;Humidity;BMP_temperature;BMP_pressure;BME280_temperature;BME280_humidity;BME280_pressure;Samples;Min_cycle;Max_cycle;Signal;HPM_P1;HPM_P2
2022/07/18 00:00:43;;;;;;;;;;;20.80;38.10;;;;;;6253225;23;20000;-92
2022/07/18 00:03:19;;;;;;;;;;;21.00;38.20;;;;;;6255534;22;19910;-90
2022/07/18 00:05:44;;;;;;;;;;;21.00;38.10;;;;;;6234843;23;19912;-91
2022/07/18 00:08:10;;;;;;;;;;;21.10;38.10;;;;;;6258133;23;19995;-90
2022/07/18 00:10:35;;;;;;;;;;;21.20;38.00;;;;;;6252466;23;19942;-90
2022/07/18 00:13:01;;;;;;;;;;;21.20;38.00;;;;;;6257409;23;19904;-91
2022/07/18 00:15:27;;;;;;;;;;;21.20;38.00;;;;;;6259507;23;19912;-90
2022/07/18 00:17:52;;;;;;;;;;;21.20;38.10;;;;;;6261460;23;19904;-90
2022/07/18 00:20:21;;;;;;;;;;;21.10;38.20;;;;;;6261463;22;19904;-90
2022/07/18 00:22:46;;;;;;;;;;;21.00;38.20;;;;;;6236721;23;19914;-91
2022/07/18 00:25:12;;;;;;;;;;;20.80;38.30;;;;;;6251520;22;19923;-92
2022/07/18 00:27:38;;;;;;;;;;;20.50;38.40;;;;;;6255970;23;19904;-92
2022/07/18 00:30:04;;;;;;;;;;;20.40;38.90;;;;;;6255321;22;19904;-91
2022/07/18 00:32:29;;;;;;;;;;;20.30;39.20;;;;;;6226843;23;19946;-92
2022/07/18 00:34:58;;;;;;;;;;;20.30;39.50;;;;;;6253795;23;19904;-91
2022/07/18 00:37:27;;;;;;;;;;;20.40;39.70;;;;;;6258005;23;19912;-90
2022/07/18 00:39:52;;;;;;;;;;;20.60;39.80;;;;;;6260009;23;19943;-91
2022/07/18 00:42:19;;;;;;;;;;;20.70;39.70;;;;;;6227248;23;19997;-91
2022/07/18 00:44:44;;;;;;;;;;;20.90;39.70;;;;;;6254117;23;19939;-93
2022/07/18 00:47:10;;;;;;;;;;;21.00;39.60;;;;;;6228727;23;20239;-92
2022/07/18 00:49:37;;;;;;;;;;;21.10;39.50;;;;;;6252588;23;19935;-92
2022/07/18 00:52:03;;;;;;;;;;;21.20;39.40;;;;;;6252149;23;19919;-92
2022/07/18 00:54:31;;;;;;;;;;;21.20;39.30;;;;;;6229075;23;19903;-92
2022/07/18 00:56:56;;;;;;;;;;;21.10;39.30;;;;;;6265814;23;19908;-92
2022/07/18 01:01:42;;;;;;;;;;;21.00;39.50;;;;;;6266667;22;19919;-92
2022/07/18 01:02:14;;;;;;;;;;;20.70;39.70;;;;;;6269125;22;19947;-92
2022/07/18 01:04:40;;;;;;;;;;;20.50;39.80;;;;;;6257903;22;19915;-91
2022/07/18 01:07:06;;;;;;;;;;;20.50;39.90;;;;;;6224818;23;20034;-91
2022/07/18 01:09:32;;;;;;;;;;;20.40;39.90;;;;;;6225364;23;19912;-92
2022/07/18 01:11:57;;;;;;;;;;;20.30;39.90;;;;;;6252916;23;19908;-92
2022/07/18 01:14:23;;;;;;;;;;;20.20;40.10;;;;;;6225019;22;19918;-92
2022/07/18 01:16:48;;;;;;;;;;;20.10;40.10;;;;;;6250607;23;19903;-91
2022/07/18 01:19:14;;;;;;;;;;;20.00;40.30;;;;;;6223213;22;19903;-91
2022/07/18 01:21:40;;;;;;;;;;;20.00;40.40;;;;;;6252287;23;19939;-92
2022/07/18 01:24:05;;;;;;;;;;;20.00;40.40;;;;;;6252635;23;19969;-93
2022/07/18 01:26:31;;;;;;;;;;;20.00;40.40;;;;;;6253073;23;19911;-91
2022/07/18 01:28:56;;;;;;;;;;;19.80;40.30;;;;;;6251615;23;20224;-92
2022/07/18 01:31:22;;;;;;;;;;;19.80;40.30;;;;;;6254510;22;19958;-91
2022/07/18 01:33:47;;;;;;;;;;;19.80;40.30;;;;;;6254839;23;19903;-91
2022/07/18 01:36:13;;;;;;;;;;;19.80;40.20;;;;;;6255779;22;19994;-90
2022/07/18 01:38:41;;;;;;;;;;;19.80;40.30;;;;;;6202912;23;19908;-92
2022/07/18 01:41:07;;;;;;;;;;;19.80;40.40;;;;;;6228604;23;19923;-90
2022/07/18 01:43:33;;;;;;;;;;;19.90;40.40;;;;;;6253154;23;19907;-91
2022/07/18 01:46:01;;;;;;;;;;;20.00;40.50;;;;;;6252458;23;19920;-92
2022/07/18 01:48:27;;;;;;;;;;;20.00;40.60;;;;;;6252748;23;19904;-91
2022/07/18 01:50:52;;;;;;;;;;;20.20;40.80;;;;;;6227500;23;19915;-90
2022/07/18 01:53:18;;;;;;;;;;;20.30;40.90;;;;;;6251895;23;19910;-92
2022/07/18 01:55:44;;;;;;;;;;;20.30;40.90;;;;;;6253078;22;19916;-91
2022/07/18 01:58:10;;;;;;;;;;;20.30;40.70;;;;;;6226969;23;19907;-91
2022/07/18 02:00:35;;;;;;;;;;;20.30;40.70;;;;;;6249964;23;19912;-90
2022/07/18 02:03:01;;;;;;;;;;;20.40;40.80;;;;;;6252764;23;19904;-92
2022/07/18 02:05:26;;;;;;;;;;;20.50;40.80;;;;;;6259078;23;19966;-91
2022/07/18 02:07:52;;;;;;;;;;;20.50;40.70;;;;;;6251010;23;19904;-92
2022/07/18 02:10:20;;;;;;;;;;;20.50;40.70;;;;;;6251807;23;19918;-91
2022/07/18 02:12:46;;;;;;;;;;;20.30;40.60;;;;;;6202754;23;19918;-91
2022/07/18 02:15:12;;;;;;;;;;;20.00;40.60;;;;;;6251700;22;19943;-91
2022/07/18 02:17:38;;;;;;;;;;;19.80;40.70;;;;;;6227694;23;19903;-91
2022/07/18 02:20:08;;;;;;;;;;;19.80;40.90;;;;;;6230475;23;19919;-92
2022/07/18 02:22:33;;;;;;;;;;;19.60;40.80;;;;;;6231300;23;19931;-90
2022/07/18 02:24:59;;;;;;;;;;;19.40;40.90;;;;;;6254924;22;19918;-91
2022/07/18 02:27:25;;;;;;;;;;;19.40;41.20;;;;;;6253871;23;20324;-91
2022/07/18 02:29:51;;;;;;;;;;;19.50;41.40;;;;;;6254867;22;19919;-91
2022/07/18 02:32:16;;;;;;;;;;;19.50;41.40;;;;;;6232777;23;19918;-90
2022/07/18 02:34:42;;;;;;;;;;;19.60;41.60;;;;;;6265086;22;20289;-92
2022/07/18 02:37:10;;;;;;;;;;;19.70;41.70;;;;;;6252575;23;19908;-91
2022/07/18 02:39:36;;;;;;;;;;;19.80;41.80;;;;;;6251809;23;20316;-91
2022/07/18 02:42:01;;;;;;;;;;;20.00;41.80;;;;;;6226351;23;19911;-91
2022/07/18 02:44:27;;;;;;;;;;;19.90;41.40;;;;;;6251296;23;19913;-91
2022/07/18 02:46:53;;;;;;;;;;;19.80;41.30;;;;;;6199182;23;19955;-92
2022/07/18 02:49:28;;;;;;;;;;;19.80;41.50;;;;;;6248935;23;20582;-92
2022/07/18 02:51:57;;;;;;;;;;;19.90;41.50;;;;;;6250364;23;19911;-91
2022/07/18 02:54:23;;;;;;;;;;;19.90;41.40;;;;;;6225472;22;19912;-92
2022/07/18 02:56:49;;;;;;;;;;;19.90;41.20;;;;;;6252184;23;19911;-91
2022/07/18 02:59:14;;;;;;;;;;;19.90;41.30;;;;;;6258508;22;19903;-90
2022/07/18 03:01:43;;;;;;;;;;;20.00;41.30;;;;;;6264152;23;19907;-90
2022/07/18 03:04:09;;;;;;;;;;;20.10;41.20;;;;;;6236090;22;19908;-90
2022/07/18 03:06:35;;;;;;;;;;;20.10;41.20;;;;;;6260252;23;19942;-89
2022/07/18 03:09:00;;;;;;;;;;;20.10;41.40;;;;;;6237209;22;19908;-92
2022/07/18 03:11:26;;;;;;;;;;;20.20;41.40;;;;;;6232103;23;19966;-91
2022/07/18 03:13:53;;;;;;;;;;;20.20;41.30;;;;;;6255501;23;19943;-91
2022/07/18 03:16:19;;;;;;;;;;;20.20;41.40;;;;;;6228791;23;19931;-91
2022/07/18 03:18:45;;;;;;;;;;;20.30;41.30;;;;;;6250015;23;19904;-92
2022/07/18 03:21:13;;;;;;;;;;;20.10;41.00;;;;;;6230324;22;19959;-90
2022/07/18 03:23:39;;;;;;;;;;;19.90;41.20;;;;;;6230712;23;20304;-92
2022/07/18 03:26:04;;;;;;;;;;;19.90;41.40;;;;;;6252362;22;19951;-91
2022/07/18 03:28:30;;;;;;;;;;;19.90;41.40;;;;;;6251358;23;19961;-91
2022/07/18 03:30:58;;;;;;;;;;;19.90;41.40;;;;;;6225202;23;19980;-91
2022/07/18 03:33:24;;;;;;;;;;;20.00;41.70;;;;;;6252587;23;19911;-91
2022/07/18 03:35:50;;;;;;;;;;;20.00;41.50;;;;;;6226473;23;19918;-92
2022/07/18 03:38:15;;;;;;;;;;;19.80;41.40;;;;;;6249513;23;19912;-92
2022/07/18 03:40:41;;;;;;;;;;;19.60;41.50;;;;;;6251390;23;20259;-92
2022/07/18 03:43:06;;;;;;;;;;;19.40;41.70;;;;;;6249965;23;19912;-91
2022/07/18 03:45:32;;;;;;;;;;;19.30;41.90;;;;;;6223858;23;19935;-92
2022/07/18 03:47:57;;;;;;;;;;;19.20;42.20;;;;;;6251226;22;19912;-92
2022/07/18 03:50:23;;;;;;;;;;;19.20;42.50;;;;;;6251628;23;20320;-92
2022/07/18 03:52:48;;;;;;;;;;;19.20;42.70;;;;;;6250369;23;19912;-92
2022/07/18 03:55:14;;;;;;;;;;;19.30;42.90;;;;;;6250263;23;19904;-91
2022/07/18 03:57:39;;;;;;;;;;;19.40;42.80;;;;;;6251415;23;19916;-92
2022/07/18 04:00:08;;;;;;;;;;;19.50;42.70;;;;;;6251663;23;20339;-91
2022/07/18 04:02:37;;;;;;;;;;;19.70;42.70;;;;;;6226630;23;19958;-90
2022/07/18 04:05:05;;;;;;;;;;;19.80;42.80;;;;;;6251942;23;19939;-90
2022/07/18 04:07:31;;;;;;;;;;;20.00;43.10;;;;;;6225732;23;19911;-91
2022/07/18 04:09:56;;;;;;;;;;;20.20;43.30;;;;;;6252090;23;19904;-91
2022/07/18 04:12:22;;;;;;;;;;;20.40;43.30;;;;;;6225792;23;19958;-91
2022/07/18 04:14:47;;;;;;;;;;;20.70;43.40;;;;;;6250894;23;19904;-91
2022/07/18 04:17:13;;;;;;;;;;;20.90;43.40;;;;;;6250508;23;19987;-91
2022/07/18 04:19:38;;;;;;;;;;;21.20;43.30;;;;;;6250830;23;19942;-91
2022/07/18 04:22:03;;;;;;;;;;;21.50;43.10;;;;;;6249833;23;19962;-92
2022/07/18 04:24:29;;;;;;;;;;;21.80;42.90;;;;;;6250164;23;19908;-91
2022/07/18 04:26:55;;;;;;;;;;;22.00;42.70;;;;;;6250335;23;19912;-91
2022/07/18 04:29:22;;;;;;;;;;;22.20;42.10;;;;;;6250977;23;21434;-92
2022/07/18 04:31:48;;;;;;;;;;;22.30;41.80;;;;;;6251929;23;19911;-92
2022/07/18 04:34:13;;;;;;;;;;;22.50;41.90;;;;;;6253106;23;19908;-91
2022/07/18 04:36:39;;;;;;;;;;;22.70;41.90;;;;;;6251566;23;19912;-91
2022/07/18 04:39:07;;;;;;;;;;;23.10;41.70;;;;;;6251405;23;19915;-92
2022/07/18 04:41:36;;;;;;;;;;;23.30;40.90;;;;;;6249513;23;19922;-91
2022/07/18 04:44:02;;;;;;;;;;;23.40;40.30;;;;;;6251522;23;19952;-90
2022/07/18 04:46:27;;;;;;;;;;;23.30;39.70;;;;;;6224649;23;20304;-91
2022/07/18 04:48:52;;;;;;;;;;;23.20;39.30;;;;;;6250801;23;19914;-91
2022/07/18 04:51:18;;;;;;;;;;;23.20;39.30;;;;;;6225431;22;19914;-91
2022/07/18 04:53:43;;;;;;;;;;;23.10;39.20;;;;;;6250587;23;19935;-91
2022/07/18 04:56:09;;;;;;;;;;;23.00;39.30;;;;;;6252211;22;19915;-92
2022/07/18 04:58:34;;;;;;;;;;;23.10;39.70;;;;;;6250067;23;20217;-92
2022/07/18 05:01:00;;;;;;;;;;;23.20;39.80;;;;;;6224407;22;19914;-91
2022/07/18 05:03:25;;;;;;;;;;;23.50;40.10;;;;;;6249672;23;19908;-92
2022/07/18 05:05:51;;;;;;;;;;;23.80;40.10;;;;;;6224433;23;19955;-92
2022/07/18 05:08:16;;;;;;;;;;;24.20;40.10;;;;;;6250232;23;19907;-92
2022/07/18 05:10:42;;;;;;;;;;;24.60;39.80;;;;;;6249310;23;19911;-92
2022/07/18 05:13:08;;;;;;;;;;;25.00;39.50;;;;;;6224172;23;20553;-92
2022/07/18 05:15:33;;;;;;;;;;;25.40;39.20;;;;;;6224014;23;19919;-92
2022/07/18 05:17:59;;;;;;;;;;;26.00;38.70;;;;;;6248637;23;20488;-92
2022/07/18 05:20:25;;;;;;;;;;;26.40;38.10;;;;;;6247430;23;19904;-93
2022/07/18 05:22:51;;;;;;;;;;;26.80;37.30;;;;;;6224106;23;19915;-92
2022/07/18 05:25:17;;;;;;;;;;;27.20;36.80;;;;;;6223569;23;19926;-92
2022/07/18 05:27:43;;;;;;;;;;;27.70;36.20;;;;;;6223878;23;19916;-92
2022/07/18 05:30:10;;;;;;;;;;;28.10;35.40;;;;;;6224427;23;19908;-92
2022/07/18 05:32:36;;;;;;;;;;;28.30;34.10;;;;;;6224080;23;20289;-93
2022/07/18 05:35:02;;;;;;;;;;;28.30;33.60;;;;;;6225304;23;19903;-93
2022/07/18 05:37:27;;;;;;;;;;;28.60;33.70;;;;;;6225076;23;19938;-92
2022/07/18 05:39:53;;;;;;;;;;;28.90;33.70;;;;;;6248831;23;20228;-91
2022/07/18 05:42:19;;;;;;;;;;;29.40;33.60;;;;;;6249818;23;19914;-93
2022/07/18 05:44:45;;;;;;;;;;;29.90;32.70;;;;;;6251263;23;19986;-92
2022/07/18 05:47:11;;;;;;;;;;;30.30;32.10;;;;;;6249626;23;19958;-92
2022/07/18 05:49:36;;;;;;;;;;;30.70;31.60;;;;;;6250195;23;19904;-92
2022/07/18 05:52:02;;;;;;;;;;;31.30;31.40;;;;;;6249917;23;19977;-92
2022/07/18 05:54:27;;;;;;;;;;;31.80;31.10;;;;;;6249699;23;19904;-93
2022/07/18 05:56:53;;;;;;;;;;;32.30;30.30;;;;;;6250022;22;19934;-94
2022/07/18 05:59:19;;;;;;;;;;;32.80;29.20;;;;;;6249656;23;19904;-93
2022/07/18 06:01:44;;;;;;;;;;;33.20;28.00;;;;;;6223226;23;19916;-93
2022/07/18 06:04:10;;;;;;;;;;;33.50;27.70;;;;;;6248865;23;19943;-92
2022/07/18 06:06:36;;;;;;;;;;;33.80;27.10;;;;;;6249954;23;19961;-93
2022/07/18 06:09:02;;;;;;;;;;;34.00;26.40;;;;;;6248730;23;19904;-92
2022/07/18 06:11:27;;;;;;;;;;;34.20;26.10;;;;;;6251292;22;19919;-93
2022/07/18 06:13:56;;;;;;;;;;;34.30;25.90;;;;;;6252259;23;19903;-94
2022/07/18 06:16:22;;;;;;;;;;;34.50;25.60;;;;;;6249833;22;19942;-92
2022/07/18 06:18:47;;;;;;;;;;;34.70;25.40;;;;;;6224325;23;19903;-92
2022/07/18 06:21:13;;;;;;;;;;;34.80;25.50;;;;;;6250283;22;19997;-93
2022/07/18 06:23:38;;;;;;;;;;;35.20;25.70;;;;;;6250551;23;19951;-93
2022/07/18 06:26:04;;;;;;;;;;;35.60;25.10;;;;;;6224793;22;19927;-94
2022/07/18 06:28:29;;;;;;;;;;;35.90;24.70;;;;;;6249077;23;19908;-92
2022/07/18 06:30:55;;;;;;;;;;;36.30;24.50;;;;;;6250125;23;19912;-91
2022/07/18 06:33:21;;;;;;;;;;;36.60;24.00;;;;;;6254755;22;19923;-93
2022/07/18 06:35:46;;;;;;;;;;;36.80;23.90;;;;;;6223968;23;20223;-92
2022/07/18 06:38:12;;;;;;;;;;;37.00;23.70;;;;;;6223627;23;19951;-94
2022/07/18 06:40:38;;;;;;;;;;;37.40;22.90;;;;;;6222729;23;19998;-93
2022/07/18 06:43:03;;;;;;;;;;;37.60;22.50;;;;;;6223860;23;20236;-90
2022/07/18 06:45:29;;;;;;;;;;;37.60;21.50;;;;;;6222172;23;20021;-93
2022/07/18 06:47:54;;;;;;;;;;;37.50;21.20;;;;;;6249079;23;19912;-96
2022/07/18 06:50:20;;;;;;;;;;;37.50;21.50;;;;;;6250701;23;20617;-93
2022/07/18 06:52:46;;;;;;;;;;;37.70;21.50;;;;;;6247820;23;19941;-94
2022/07/18 06:55:13;;;;;;;;;;;38.10;21.40;;;;;;6247605;23;19911;-93
2022/07/18 06:57:39;;;;;;;;;;;38.50;21.00;;;;;;6223886;23;20037;-94
2022/07/18 07:00:05;;;;;;;;;;;38.80;20.50;;;;;;6251055;23;19910;-93
2022/07/18 07:02:34;;;;;;;;;;;39.10;20.50;;;;;;6223721;23;19919;-93
2022/07/18 07:05:00;;;;;;;;;;;39.40;20.20;;;;;;6224221;23;19916;-93
2022/07/18 07:07:30;;;;;;;;;;;39.80;19.80;;;;;;6251896;22;19939;-93
2022/07/18 07:09:56;;;;;;;;;;;40.10;19.70;;;;;;6250559;23;19904;-93
2022/07/18 07:12:22;;;;;;;;;;;40.40;18.90;;;;;;6254958;23;19915;-94
2022/07/18 07:14:47;;;;;;;;;;;40.70;18.90;;;;;;6250936;23;19991;-94
2022/07/18 07:17:13;;;;;;;;;;;41.00;18.50;;;;;;6250621;23;19982;-93
2022/07/18 07:19:38;;;;;;;;;;;41.30;18.50;;;;;;6225081;23;19915;-93
2022/07/18 07:22:04;;;;;;;;;;;41.70;18.20;;;;;;6252039;22;19911;-93
2022/07/18 07:24:38;;;;;;;;;;;42.10;18.10;;;;;;6252365;23;19939;-94
2022/07/18 07:27:03;;;;;;;;;;;42.50;17.70;;;;;;6249540;22;19908;-93
2022/07/18 07:29:29;;;;;;;;;;;42.80;17.70;;;;;;6248066;23;19911;-91
2022/07/18 07:31:55;;;;;;;;;;;43.20;17.60;;;;;;6245901;22;19985;-91
2022/07/18 07:34:21;;;;;;;;;;;43.60;17.20;;;;;;6243507;23;19915;-94
2022/07/18 07:36:47;;;;;;;;;;;44.00;17.10;;;;;;6245736;23;19911;-94
2022/07/18 07:39:12;;;;;;;;;;;44.40;16.80;;;;;;6219956;23;19969;-93
2022/07/18 07:41:38;;;;;;;;;;;44.50;16.40;;;;;;6247076;22;19990;-93
2022/07/18 07:44:03;;;;;;;;;;;44.60;16.40;;;;;;6245050;23;19912;-92
2022/07/18 07:46:29;;;;;;;;;;;44.80;16.30;;;;;;6243795;23;19911;-91
2022/07/18 07:48:54;;;;;;;;;;;45.00;15.90;;;;;;6247508;23;20304;-93
2022/07/18 07:51:20;;;;;;;;;;;45.30;15.90;;;;;;6246785;23;19916;-92
2022/07/18 07:53:45;;;;;;;;;;;45.40;15.90;;;;;;6247043;22;20689;-92
2022/07/18 07:56:10;;;;;;;;;;;45.80;15.70;;;;;;6246094;23;19987;-93
2022/07/18 07:58:36;;;;;;;;;;;46.20;15.60;;;;;;6245579;23;19916;-92
2022/07/18 08:01:02;;;;;;;;;;;46.40;15.10;;;;;;6221003;23;19935;-91
2022/07/18 08:03:27;;;;;;;;;;;46.60;14.80;;;;;;6247253;23;19923;-93
2022/07/18 08:05:52;;;;;;;;;;;46.80;14.90;;;;;;6246806;23;19914;-93
2022/07/18 08:08:18;;;;;;;;;;;47.00;14.60;;;;;;6245675;23;19907;-92
2022/07/18 08:10:44;;;;;;;;;;;47.20;14.50;;;;;;6245904;23;20591;-92
2022/07/18 08:13:10;;;;;;;;;;;47.40;14.40;;;;;;6246571;22;19907;-93
2022/07/18 08:15:35;;;;;;;;;;;47.70;14.20;;;;;;6247341;23;19888;-92
2022/07/18 08:18:01;;;;;;;;;;;47.90;14.10;;;;;;6245247;22;19904;-91
2022/07/18 08:20:27;;;;;;;;;;;48.20;14.20;;;;;;6221258;23;19919;-91
2022/07/18 08:22:55;;;;;;;;;;;48.60;13.50;;;;;;6247088;23;19907;-92
2022/07/18 08:25:21;;;;;;;;;;;48.50;13.30;;;;;;6219983;23;19916;-93
2022/07/18 08:27:46;;;;;;;;;;;48.30;13.10;;;;;;6220240;23;20413;-91
2022/07/18 08:30:12;;;;;;;;;;;48.20;13.40;;;;;;6219290;23;20307;-92
2022/07/18 08:32:37;;;;;;;;;;;48.10;13.60;;;;;;6244829;23;19939;-92
2022/07/18 08:35:03;;;;;;;;;;;48.20;13.70;;;;;;6245773;23;19915;-92
2022/07/18 08:37:28;;;;;;;;;;;48.40;13.50;;;;;;6246089;23;19911;-92
2022/07/18 08:39:54;;;;;;;;;;;48.50;13.40;;;;;;6245750;23;19912;-92
2022/07/18 08:42:26;;;;;;;;;;;48.70;13.10;;;;;;6245321;23;19957;-93
2022/07/18 08:44:53;;;;;;;;;;;48.70;12.90;;;;;;6218352;23;19922;-92
2022/07/18 08:47:34;;;;;;;;;;;48.70;12.90;;;;;;6216553;23;19907;-92
2022/07/18 08:50:05;;;;;;;;;;;48.80;12.80;;;;;;6217432;23;19923;-92
2022/07/18 08:52:32;;;;;;;;;;;49.10;12.80;;;;;;6217748;23;19911;-92
2022/07/18 08:55:03;;;;;;;;;;;49.30;12.50;;;;;;6218304;23;19916;-92
2022/07/18 08:57:29;;;;;;;;;;;49.60;12.70;;;;;;6245604;23;19962;-93
2022/07/18 08:59:57;;;;;;;;;;;49.80;12.70;;;;;;6244031;23;19915;-92
2022/07/18 09:02:26;;;;;;;;;;;49.90;12.10;;;;;;6244450;23;19982;-93
2022/07/18 09:04:51;;;;;;;;;;;49.80;11.90;;;;;;6248599;22;19911;-93
2022/07/18 09:07:25;;;;;;;;;;;49.60;12.00;;;;;;6224213;23;19958;-93
2022/07/18 09:09:57;;;;;;;;;;;49.50;12.30;;;;;;6222673;23;19927;-93
2022/07/18 09:12:23;;;;;;;;;;;49.70;12.30;;;;;;6224174;23;19915;-93
2022/07/18 09:14:48;;;;;;;;;;;49.80;11.90;;;;;;6247990;23;19984;-92
2022/07/18 09:17:15;;;;;;;;;;;49.90;11.90;;;;;;6235648;23;19910;-93
2022/07/18 09:19:41;;;;;;;;;;;50.00;11.70;;;;;;6221683;23;19926;-93
2022/07/18 09:22:13;;;;;;;;;;;50.00;11.70;;;;;;6217843;23;19911;-92
2022/07/18 09:24:49;;;;;;;;;;;50.00;11.60;;;;;;6245045;22;19923;-91
2022/07/18 09:27:22;;;;;;;;;;;50.00;11.70;;;;;;6218329;23;19956;-93
2022/07/18 09:29:51;;;;;;;;;;;50.20;11.60;;;;;;6218762;23;19923;-92
2022/07/18 09:32:21;;;;;;;;;;;50.30;11.50;;;;;;6218378;23;19997;-94
2022/07/18 09:34:46;;;;;;;;;;;50.30;11.60;;;;;;6219032;23;19922;-93
2022/07/18 09:37:12;;;;;;;;;;;50.50;11.40;;;;;;6244476;23;19907;-94
2022/07/18 09:39:38;;;;;;;;;;;50.70;11.10;;;;;;6244543;23;19915;-92
2022/07/18 09:42:17;;;;;;;;;;;50.90;10.80;;;;;;6244563;23;19915;-92
2022/07/18 09:44:42;;;;;;;;;;;50.90;10.60;;;;;;6217447;23;19923;-92
2022/07/18 09:47:09;;;;;;;;;;;50.90;10.30;;;;;;6219425;23;19904;-93
2022/07/18 09:49:36;;;;;;;;;;;51.00;10.30;;;;;;6244387;23;19912;-92
2022/07/18 09:52:02;;;;;;;;;;;51.00;10.20;;;;;;6219087;23;19919;-92
2022/07/18 09:54:41;;;;;;;;;;;51.20;10.30;;;;;;6219028;23;20670;-92
2022/07/18 09:57:07;;;;;;;;;;;51.50;10.30;;;;;;6219434;23;19982;-93
2022/07/18 09:59:34;;;;;;;;;;;51.50;10.00;;;;;;6246967;23;20308;-93
2022/07/18 10:01:59;;;;;;;;;;;51.50;10.10;;;;;;6219241;23;19908;-93
2022/07/18 10:04:26;;;;;;;;;;;51.50;9.70;;;;;;6246406;22;19915;-92
2022/07/18 10:06:51;;;;;;;;;;;51.40;10.00;;;;;;6219283;23;19904;-93
2022/07/18 10:09:17;;;;;;;;;;;51.50;10.00;;;;;;6247679;23;19923;-92
2022/07/18 10:11:42;;;;;;;;;;;51.80;10.10;;;;;;6222059;23;19908;-93
2022/07/18 10:14:08;;;;;;;;;;;51.80;9.80;;;;;;6250283;22;19966;-93
2022/07/18 10:16:34;;;;;;;;;;;51.40;9.40;;;;;;6248014;23;19903;-93
2022/07/18 10:19:00;;;;;;;;;;;51.20;9.70;;;;;;6222182;23;19912;-92
2022/07/18 10:21:29;;;;;;;;;;;51.30;9.60;;;;;;6247366;23;20376;-93
2022/07/18 10:23:55;;;;;;;;;;;51.30;9.50;;;;;;6224222;23;19959;-92
2022/07/18 10:26:22;;;;;;;;;;;51.20;9.40;;;;;;6251345;23;19916;-93
2022/07/18 10:28:53;;;;;;;;;;;51.00;9.40;;;;;;6221173;23;20213;-92
2022/07/18 10:31:19;;;;;;;;;;;50.80;9.40;;;;;;6220646;23;19907;-93
2022/07/18 10:33:47;;;;;;;;;;;50.80;9.60;;;;;;6197159;23;19931;-93
2022/07/18 10:36:12;;;;;;;;;;;51.10;9.60;;;;;;6219351;23;19908;-94
2022/07/18 10:38:38;;;;;;;;;;;51.20;9.60;;;;;;6220564;23;19939;-93
2022/07/18 10:41:12;;;;;;;;;;;51.30;9.30;;;;;;6221811;23;19918;-92
2022/07/18 10:43:39;;;;;;;;;;;51.20;9.40;;;;;;6221483;23;19915;-94
2022/07/18 10:46:06;;;;;;;;;;;51.40;9.50;;;;;;6248252;23;19978;-93
2022/07/18 10:48:32;;;;;;;;;;;51.60;9.60;;;;;;6249148;22;19911;-94
2022/07/18 10:51:07;;;;;;;;;;;51.80;9.50;;;;;;6221823;23;19912;-94
2022/07/18 10:53:52;;;;;;;;;;;51.80;9.30;;;;;;6220927;23;20009;-93
2022/07/18 10:56:17;;;;;;;;;;;52.00;9.30;;;;;;6219887;23;20287;-95
2022/07/18 10:58:43;;;;;;;;;;;52.10;9.50;;;;;;6245416;23;19912;-94
2022/07/18 11:01:14;;;;;;;;;;;52.20;9.00;;;;;;6220291;23;19911;-92
2022/07/18 11:03:39;;;;;;;;;;;52.10;9.10;;;;;;6246304;23;19984;-92
2022/07/18 11:06:05;;;;;;;;;;;51.90;8.90;;;;;;6245541;23;19908;-94
2022/07/18 11:08:31;;;;;;;;;;;51.80;8.90;;;;;;6248076;23;19923;-92
2022/07/18 11:11:01;;;;;;;;;;;51.70;8.80;;;;;;6245224;23;19932;-93
2022/07/18 11:13:33;;;;;;;;;;;51.40;8.80;;;;;;6245336;22;19922;-94
2022/07/18 11:15:58;;;;;;;;;;;51.10;8.70;;;;;;6217523;23;19903;-91
2022/07/18 11:18:25;;;;;;;;;;;50.70;8.80;;;;;;6218272;23;19966;-91
2022/07/18 11:20:51;;;;;;;;;;;50.50;9.10;;;;;;6245904;23;19943;-91
2022/07/18 11:23:16;;;;;;;;;;;50.70;9.20;;;;;;6219650;22;20240;-93
2022/07/18 11:25:42;;;;;;;;;;;50.80;9.10;;;;;;6217341;23;19908;-94
2022/07/18 11:28:08;;;;;;;;;;;50.80;9.00;;;;;;6218867;22;20313;-94
2022/07/18 11:30:34;;;;;;;;;;;50.70;9.00;;;;;;6221104;23;19979;-91
2022/07/18 11:33:00;;;;;;;;;;;50.70;9.00;;;;;;6222382;23;19923;-92
2022/07/18 11:35:25;;;;;;;;;;;50.70;9.10;;;;;;6229552;23;19899;-93
2022/07/18 11:37:52;;;;;;;;;;;51.00;9.10;;;;;;6246210;23;19962;-93
2022/07/18 11:40:18;;;;;;;;;;;51.20;9.30;;;;;;6249884;23;20395;-93
2022/07/18 11:42:44;;;;;;;;;;;51.50;9.00;;;;;;6227057;23;19907;-93
2022/07/18 11:45:12;;;;;;;;;;;51.40;9.00;;;;;;6254950;23;19915;-93
2022/07/18 11:47:45;;;;;;;;;;;51.40;9.10;;;;;;6259493;23;19904;-94
2022/07/18 11:50:15;;;;;;;;;;;51.60;9.20;;;;;;6265234;22;19919;-94
2022/07/18 11:52:42;;;;;;;;;;;51.80;9.20;;;;;;6208345;23;19958;-92
2022/07/18 11:55:07;;;;;;;;;;;52.30;9.20;;;;;;6250108;22;19922;-92
2022/07/18 11:57:33;;;;;;;;;;;52.60;9.10;;;;;;6224268;23;19888;-93
2022/07/18 12:00:19;;;;;;;;;;;52.70;9.20;;;;;;6252157;23;19923;-92
2022/07/18 12:02:45;;;;;;;;;;;53.00;9.10;;;;;;6256455;23;19958;-91
2022/07/18 12:05:13;;;;;;;;;;;52.80;8.90;;;;;;6245972;22;19912;-91
2022/07/18 12:07:41;;;;;;;;;;;52.70;8.90;;;;;;6249935;23;19908;-90
2022/07/18 12:10:17;;;;;;;;;;;52.80;9.00;;;;;;6266077;23;19949;-92
2022/07/18 12:12:43;;;;;;;;;;;53.00;9.00;;;;;;6260319;23;20351;-91
2022/07/18 12:15:08;;;;;;;;;;;53.00;9.00;;;;;;6247099;23;19939;-92
2022/07/18 12:17:42;;;;;;;;;;;53.00;9.00;;;;;;6248925;23;19907;-93
2022/07/18 12:20:19;;;;;;;;;;;53.00;8.90;;;;;;6231983;23;19916;-92
2022/07/18 12:23:03;;;;;;;;;;;53.20;9.10;;;;;;6231307;23;19904;-93
2022/07/18 12:25:48;;;;;;;;;;;53.30;9.10;;;;;;6237202;23;19912;-93
2022/07/18 12:28:13;;;;;;;;;;;53.30;9.10;;;;;;6222477;23;20306;-91
2022/07/18 12:30:44;;;;;;;;;;;53.20;9.20;;;;;;6246591;23;20010;-93
2022/07/18 12:33:10;;;;;;;;;;;53.20;9.10;;;;;;6219514;23;19954;-92
2022/07/18 12:35:35;;;;;;;;;;;53.30;9.10;;;;;;6243601;23;19911;-93
2022/07/18 12:38:01;;;;;;;;;;;53.30;9.10;;;;;;6220409;23;20019;-93
2022/07/18 12:40:38;;;;;;;;;;;53.40;9.10;;;;;;6220665;23;19926;-92
2022/07/18 12:43:06;;;;;;;;;;;53.50;9.00;;;;;;6220572;23;19915;-92
2022/07/18 12:45:31;;;;;;;;;;;53.30;8.80;;;;;;6244523;22;19995;-93
2022/07/18 12:47:57;;;;;;;;;;;53.10;8.90;;;;;;6246413;23;19923;-94
2022/07/18 12:50:22;;;;;;;;;;;53.10;9.00;;;;;;6248016;22;19946;-94
2022/07/18 12:52:48;;;;;;;;;;;53.20;8.90;;;;;;6248391;23;20209;-93
2022/07/18 12:55:13;;;;;;;;;;;53.10;8.80;;;;;;6247360;22;19908;-93
2022/07/18 12:57:39;;;;;;;;;;;53.00;9.10;;;;;;6247536;23;19914;-92
2022/07/18 13:00:04;;;;;;;;;;;53.00;9.10;;;;;;6247298;23;20034;-93
2022/07/18 13:02:30;;;;;;;;;;;53.10;9.10;;;;;;6220662;23;19919;-92
2022/07/18 13:04:55;;;;;;;;;;;53.20;9.10;;;;;;6244630;23;19908;-90
2022/07/18 13:07:21;;;;;;;;;;;53.30;9.00;;;;;;6219266;23;19961;-92
2022/07/18 13:09:46;;;;;;;;;;;53.30;9.00;;;;;;6247020;23;19914;-90
2022/07/18 13:12:39;;;;;;;;;;;53.30;9.10;;;;;;6268394;22;19911;-91
2022/07/18 13:15:05;;;;;;;;;;;53.40;8.80;;;;;;6240562;23;19911;-92
2022/07/18 13:17:31;;;;;;;;;;;53.30;8.90;;;;;;6251960;23;19904;-92
2022/07/18 13:19:56;;;;;;;;;;;53.20;8.70;;;;;;6251079;22;19915;-93
2022/07/18 13:22:22;;;;;;;;;;;53.10;8.80;;;;;;6248736;23;19914;-92
2022/07/18 13:24:47;;;;;;;;;;;52.90;8.80;;;;;;6221933;23;19940;-93
2022/07/18 13:27:13;;;;;;;;;;;52.70;8.90;;;;;;6246828;23;19912;-92
2022/07/18 13:29:38;;;;;;;;;;;52.50;9.10;;;;;;6248219;22;19912;-92
2022/07/18 13:32:04;;;;;;;;;;;52.50;9.10;;;;;;6223648;23;19998;-93
2022/07/18 13:34:29;;;;;;;;;;;52.40;8.90;;;;;;6249918;22;19912;-91
2022/07/18 13:36:58;;;;;;;;;;;52.10;9.00;;;;;;6220680;23;19912;-91
2022/07/18 13:39:23;;;;;;;;;;;51.80;9.20;;;;;;6246596;23;20330;-94
2022/07/18 13:41:50;;;;;;;;;;;51.50;9.40;;;;;;6246419;23;19950;-91
2022/07/18 13:44:16;;;;;;;;;;;51.20;9.50;;;;;;6246484;22;19961;-92
2022/07/18 13:46:44;;;;;;;;;;;50.80;9.50;;;;;;6221755;23;19904;-92
2022/07/18 13:49:10;;;;;;;;;;;50.30;9.80;;;;;;6245495;22;19912;-92
2022/07/18 13:51:36;;;;;;;;;;;49.80;9.80;;;;;;6220628;23;20317;-91
2022/07/18 13:54:03;;;;;;;;;;;49.20;10.00;;;;;;6221584;23;19916;-90
2022/07/18 13:56:28;;;;;;;;;;;48.70;10.00;;;;;;6220858;23;19907;-92
2022/07/18 13:58:54;;;;;;;;;;;48.10;10.10;;;;;;6219101;23;19915;-92
2022/07/18 14:01:19;;;;;;;;;;;47.60;10.40;;;;;;6245046;23;19920;-92
2022/07/18 14:03:44;;;;;;;;;;;47.10;10.50;;;;;;6246563;22;19923;-93
2022/07/18 14:06:10;;;;;;;;;;;46.40;10.60;;;;;;6244268;23;20520;-91
2022/07/18 14:08:36;;;;;;;;;;;45.90;10.80;;;;;;6249547;22;19916;-92
2022/07/18 14:11:02;;;;;;;;;;;45.40;11.00;;;;;;6248217;23;19919;-91
2022/07/18 14:13:27;;;;;;;;;;;45.00;11.20;;;;;;6246580;22;20305;-92
2022/07/18 14:15:53;;;;;;;;;;;44.60;11.40;;;;;;6241103;23;19946;-91
2022/07/18 14:18:18;;;;;;;;;;;44.30;11.70;;;;;;6245838;23;19915;-91